sensor_id;sensor_type;location;lat;lon;timestamp;pressure;altitude;pressure_sealevel;temperature;humidity
10202;BME280;5143;42.584;23.164;2022-10-16T00:01:06;93159.09;;;3.87;100.00
10202;BME280;5143;42.584;23.164;2022-10-16T00:03:34;93157.56;;;3.86;100.00
10202;BME280;5143;42.584;23.164;2022-10-16T00:06:01;93162.97;;;3.86;100.00
10202;BME280;5143;42.584;23.164;2022-10-16T00:08:28;93166.75;;;3.89;100.00
10202;BME280;5143;42.584;23.164;2022-10-16T00:10:59;93168.69;;;3.88;100.00
10202;BME280;5143;42.584;23.164;2022-10-16T00:13:26;93160.78;;;3.81;100.00
10202;BME280;5143;42.584;23.164;2022-10-16T00:15:56;93173.59;;;3.77;100.00
10202;BME280;5143;42.584;23.164;2022-10-16T00:18:24;93173.28;;;3.75;100.00
10202;BME280;5143;42.584;23.164;2022-10-16T00:20:51;93176.31;;;3.77;100.00
10202;BME280;5143;42.584;23.164;2022-10-16T00:23:18;93180.38;;;3.69;100.00
10202;BME280;5143;42.584;23.164;2022-10-16T00:25:53;93187.38;;;3.67;100.00
10202;BME280;5143;42.584;23.164;2022-10-16T00:28:20;93181.63;;;3.65;100.00
10202;BME280;5143;42.584;23.164;2022-10-16T00:30:47;93187.56;;;3.60;100.00
10202;BME280;5143;42.584;23.164;2022-10-16T00:33:15;93183.75;;;3.57;100.00
10202;BME280;5143;42.584;23.164;2022-10-16T00:35:41;93183.75;;;3.57;100.00
10202;BME280;5143;42.584;23.164;2022-10-16T00:38:08;93183.75;;;3.57;100.00
10202;BME280;5143;42.584;23.164;2022-10-16T00:40:35;93184.09;;;3.59;100.00
10202;BME280;5143;42.584;23.164;2022-10-16T00:43:02;93178.38;;;3.57;100.00
10202;BME280;5143;42.584;23.164;2022-10-16T00:45:29;93176.91;;;3.52;100.00
10202;BME280;5143;42.584;23.164;2022-10-16T00:47:56;93183.41;;;3.55;100.00
10202;BME280;5143;42.584;23.164;2022-10-16T00:50:28;93183.00;;;3.56;100.00
10202;BME280;5143;42.584;23.164;2022-10-16T00:52:56;93178.53;;;3.50;100.00
10202;BME280;5143;42.584;23.164;2022-10-16T00:55:25;93175.50;;;3.48;100.00
10202;BME280;5143;42.584;23.164;2022-10-16T00:57:53;93180.56;;;3.46;100.00
10202;BME280;5143;42.584;23.164;2022-10-16T01:00:23;93177.88;;;3.46;100.00
10202;BME280;5143;42.584;23.164;2022-10-16T01:02:53;93177.75;;;3.49;100.00
10202;BME280;5143;42.584;23.164;2022-10-16T01:05:21;93181.31;;;3.46;100.00
10202;BME280;5143;42.584;23.164;2022-10-16T01:07:56;93180.56;;;3.46;100.00
10202;BME280;5143;42.584;23.164;2022-10-16T01:10:30;93179.81;;;3.29;100.00
10202;BME280;5143;42.584;23.164;2022-10-16T01:13:01;93188.22;;;3.31;100.00
10202;BME280;5143;42.584;23.164;2022-10-16T01:15:32;93184.25;;;3.36;100.00
10202;BME280;5143;42.584;23.164;2022-10-16T01:18:03;93186.63;;;3.34;100.00
10202;BME280;5143;42.584;23.164;2022-10-16T01:20:35;93182.06;;;3.31;100.00
10202;BME280;5143;42.584;23.164;2022-10-16T01:23:15;93185.19;;;3.29;100.00
10202;BME280;5143;42.584;23.164;2022-10-16T01:26:14;93178.72;;;3.27;100.00
10202;BME280;5143;42.584;23.164;2022-10-16T01:28:52;93176.00;;;3.27;100.00
10202;BME280;5143;42.584;23.164;2022-10-16T01:31:24;93169.22;;;3.19;100.00
10202;BME280;5143;42.584;23.164;2022-10-16T01:33:57;93177.25;;;3.22;100.00
10202;BME280;5143;42.584;23.164;2022-10-16T01:36:30;93175.50;;;3.32;100.00
10202;BME280;5143;42.584;23.164;2022-10-16T01:39:01;93182.84;;;3.31;100.00
10202;BME280;5143;42.584;23.164;2022-10-16T01:41:31;93166.22;;;3.17;100.00
10202;BME280;5143;42.584;23.164;2022-10-16T01:44:03;93179.88;;;3.26;100.00
10202;BME280;5143;42.584;23.164;2022-10-16T01:46:32;93179.88;;;3.26;100.00
10202;BME280;5143;42.584;23.164;2022-10-16T01:49:00;93165.88;;;3.15;100.00
10202;BME280;5143;42.584;23.164;2022-10-16T01:51:29;93178.09;;;3.19;100.00
10202;BME280;5143;42.584;23.164;2022-10-16T01:53:59;93191.75;;;3.12;100.00
10202;BME280;5143;42.584;23.164;2022-10-16T01:56:28;93201.44;;;3.10;100.00
10202;BME280;5143;42.584;23.164;2022-10-16T01:58:58;93202.63;;;3.09;100.00
10202;BME280;5143;42.584;23.164;2022-10-16T02:01:30;93201.13;;;3.08;100.00
10202;BME280;5143;42.584;23.164;2022-10-16T02:04:03;93204.97;;;3.07;100.00
10202;BME280;5143;42.584;23.164;2022-10-16T02:06:32;93208.94;;;3.02;100.00
10202;BME280;5143;42.584;23.164;2022-10-16T02:08:59;93212.88;;;2.97;100.00
10202;BME280;5143;42.584;23.164;2022-10-16T02:11:26;93208.31;;;2.94;100.00
10202;BME280;5143;42.584;23.164;2022-10-16T02:13:55;93213.56;;;3.02;100.00
10202;BME280;5143;42.584;23.164;2022-10-16T02:16:33;93209.69;;;3.03;100.00
10202;BME280;5143;42.584;23.164;2022-10-16T02:19:00;93215.50;;;3.01;100.00
10202;BME280;5143;42.584;23.164;2022-10-16T02:21:30;93212.03;;;3.01;100.00
10202;BME280;5143;42.584;23.164;2022-10-16T02:24:05;93219.09;;;2.94;100.00
10202;BME280;5143;42.584;23.164;2022-10-16T02:26:40;93221.41;;;2.96;100.00
10202;BME280;5143;42.584;23.164;2022-10-16T02:29:12;93217.16;;;2.95;100.00
10202;BME280;5143;42.584;23.164;2022-10-16T02:31:46;93223.66;;;2.97;100.00
10202;BME280;5143;42.584;23.164;2022-10-16T02:34:16;93219.47;;;2.96;100.00
10202;BME280;5143;42.584;23.164;2022-10-16T02:36:46;93218.69;;;2.96;100.00
10202;BME280;5143;42.584;23.164;2022-10-16T02:39:15;93222.91;;;2.97;100.00
10202;BME280;5143;42.584;23.164;2022-10-16T02:41:42;93220.97;;;2.97;100.00
10202;BME280;5143;42.584;23.164;2022-10-16T02:44:09;93216.91;;;2.89;100.00
10202;BME280;5143;42.584;23.164;2022-10-16T02:46:36;93229.47;;;2.96;100.00
10202;BME280;5143;42.584;23.164;2022-10-16T02:49:04;93229.88;;;2.94;100.00
10202;BME280;5143;42.584;23.164;2022-10-16T02:51:31;93224.72;;;2.84;100.00
10202;BME280;5143;42.584;23.164;2022-10-16T02:53:58;93235.56;;;2.80;100.00
10202;BME280;5143;42.584;23.164;2022-10-16T02:56:24;93232.53;;;2.78;100.00
10202;BME280;5143;42.584;23.164;2022-10-16T02:58:51;93234.97;;;2.73;100.00
10202;BME280;5143;42.584;23.164;2022-10-16T03:01:18;93233.38;;;2.75;100.00
10202;BME280;5143;42.584;23.164;2022-10-16T03:03:45;93231.09;;;2.74;100.00
10202;BME280;5143;42.584;23.164;2022-10-16T03:06:13;93226.47;;;2.74;100.00
10202;BME280;5143;42.584;23.164;2022-10-16T03:08:40;93234.56;;;2.74;100.00
10202;BME280;5143;42.584;23.164;2022-10-16T03:11:06;93224.94;;;2.73;100.00
10202;BME280;5143;42.584;23.164;2022-10-16T03:13:33;93223.84;;;2.71;100.00
10202;BME280;5143;42.584;23.164;2022-10-16T03:16:00;93222.75;;;2.68;100.00
10202;BME280;5143;42.584;23.164;2022-10-16T03:18:27;93223.91;;;2.67;100.00
10202;BME280;5143;42.584;23.164;2022-10-16T03:20:54;93223.25;;;2.63;100.00
10202;BME280;5143;42.584;23.164;2022-10-16T03:23:22;93213.78;;;2.55;100.00
10202;BME280;5143;42.584;23.164;2022-10-16T03:25:49;93224.47;;;2.59;100.00
10202;BME280;5143;42.584;23.164;2022-10-16T03:28:16;93230.56;;;2.63;100.00
10202;BME280;5143;42.584;23.164;2022-10-16T03:30:43;93233.31;;;2.59;100.00
10202;BME280;5143;42.584;23.164;2022-10-16T03:33:10;93225.94;;;2.63;100.00
10202;BME280;5143;42.584;23.164;2022-10-16T03:35:37;93232.50;;;2.62;100.00
10202;BME280;5143;42.584;23.164;2022-10-16T03:38:03;93231.72;;;2.62;100.00
10202;BME280;5143;42.584;23.164;2022-10-16T03:40:32;93229.78;;;2.62;100.00
10202;BME280;5143;42.584;23.164;2022-10-16T03:42:59;93227.53;;;2.61;100.00
10202;BME280;5143;42.584;23.164;2022-10-16T03:45:25;93225.56;;;2.61;100.00
10202;BME280;5143;42.584;23.164;2022-10-16T03:47:52;93222.88;;;2.61;100.00
10202;BME280;5143;42.584;23.164;2022-10-16T03:50:19;93225.00;;;2.70;100.00
10202;BME280;5143;42.584;23.164;2022-10-16T03:52:46;93233.59;;;2.65;100.00
10202;BME280;5143;42.584;23.164;2022-10-16T03:55:13;93228.28;;;2.61;100.00
10202;BME280;5143;42.584;23.164;2022-10-16T03:57:41;93220.69;;;2.56;100.00
10202;BME280;5143;42.584;23.164;2022-10-16T04:00:09;93220.75;;;2.53;100.00
10202;BME280;5143;42.584;23.164;2022-10-16T04:02:36;93223.03;;;2.54;100.00
10202;BME280;5143;42.584;23.164;2022-10-16T04:05:03;93201.69;;;2.44;100.00
10202;BME280;5143;42.584;23.164;2022-10-16T04:07:30;93220.00;;;2.52;100.00
10202;BME280;5143;42.584;23.164;2022-10-16T04:09:57;93218.06;;;2.53;100.00
10202;BME280;5143;42.584;23.164;2022-10-16T04:12:24;93215.38;;;2.53;100.00
10202;BME280;5143;42.584;23.164;2022-10-16T04:14:53;93222.28;;;2.54;100.00
10202;BME280;5143;42.584;23.164;2022-10-16T04:17:19;93225.78;;;2.51;100.00
10202;BME280;5143;42.584;23.164;2022-10-16T04:19:46;93219.91;;;2.56;100.00
10202;BME280;5143;42.584;23.164;2022-10-16T04:22:13;93219.25;;;2.52;100.00
10202;BME280;5143;42.584;23.164;2022-10-16T04:24:40;93215.44;;;2.49;100.00
10202;BME280;5143;42.584;23.164;2022-10-16T04:27:06;93223.53;;;2.49;100.00
10202;BME280;5143;42.584;23.164;2022-10-16T04:29:33;93226.22;;;2.49;100.00
10202;BME280;5143;42.584;23.164;2022-10-16T04:32:01;93226.72;;;2.44;100.00
10202;BME280;5143;42.584;23.164;2022-10-16T04:34:28;93234.50;;;2.38;100.00
10202;BME280;5143;42.584;23.164;2022-10-16T04:36:55;93232.66;;;2.35;100.00
10202;BME280;5143;42.584;23.164;2022-10-16T04:39:22;93229.94;;;2.35;100.00
10202;BME280;5143;42.584;23.164;2022-10-16T04:41:48;93232.16;;;2.41;100.00
10202;BME280;5143;42.584;23.164;2022-10-16T04:44:15;93224.47;;;2.39;100.00
10202;BME280;5143;42.584;23.164;2022-10-16T04:46:42;93234.09;;;2.40;100.00
10202;BME280;5143;42.584;23.164;2022-10-16T04:49:11;93232.69;;;2.32;100.00
10202;BME280;5143;42.584;23.164;2022-10-16T04:51:37;93248.53;;;2.30;100.00
10202;BME280;5143;42.584;23.164;2022-10-16T04:54:04;93252.72;;;2.31;100.00
10202;BME280;5143;42.584;23.164;2022-10-16T04:56:31;93246.16;;;2.32;100.00
10202;BME280;5143;42.584;23.164;2022-10-16T04:58:58;93264.88;;;2.39;100.00
10202;BME280;5143;42.584;23.164;2022-10-16T05:01:24;93254.75;;;2.27;100.00
10202;BME280;5143;42.584;23.164;2022-10-16T05:03:51;93272.50;;;2.44;100.00
10202;BME280;5143;42.584;23.164;2022-10-16T05:06:19;93264.75;;;2.46;100.00
10202;BME280;5143;42.584;23.164;2022-10-16T05:08:46;93264.63;;;2.53;100.00
10202;BME280;5143;42.584;23.164;2022-10-16T05:11:12;93264.41;;;2.64;100.00
10202;BME280;5143;42.584;23.164;2022-10-16T05:13:39;93267.47;;;2.66;100.00
10202;BME280;5143;42.584;23.164;2022-10-16T05:16:06;93265.16;;;2.64;100.00
10202;BME280;5143;42.584;23.164;2022-10-16T05:18:33;93267.03;;;2.67;100.00
10202;BME280;5143;42.584;23.164;2022-10-16T05:21:00;93258.28;;;2.63;100.00
10202;BME280;5143;42.584;23.164;2022-10-16T05:23:28;93271.22;;;2.72;100.00
10202;BME280;5143;42.584;23.164;2022-10-16T05:25:56;93278.81;;;2.77;100.00
10202;BME280;5143;42.584;23.164;2022-10-16T05:28:23;93274.25;;;2.74;100.00
10202;BME280;5143;42.584;23.164;2022-10-16T05:30:50;93270.78;;;2.73;100.00
10202;BME280;5143;42.584;23.164;2022-10-16T05:33:19;93271.00;;;2.82;100.00
10202;BME280;5143;42.584;23.164;2022-10-16T05:35:46;93281.28;;;2.87;100.00
10202;BME280;5143;42.584;23.164;2022-10-16T05:38:13;93278.72;;;2.80;100.00
10202;BME280;5143;42.584;23.164;2022-10-16T05:40:41;93272.84;;;2.85;100.00
10202;BME280;5143;42.584;23.164;2022-10-16T05:43:08;93279.78;;;3.03;100.00
10202;BME280;5143;42.584;23.164;2022-10-16T05:45:35;93278.00;;;3.16;100.00
10202;BME280;5143;42.584;23.164;2022-10-16T05:48:02;93293.78;;;3.33;100.00
10202;BME280;5143;42.584;23.164;2022-10-16T05:50:29;93287.31;;;3.47;100.00
10202;BME280;5143;42.584;23.164;2022-10-16T05:52:56;93297.13;;;3.57;100.00
10202;BME280;5143;42.584;23.164;2022-10-16T05:55:23;93303.38;;;3.70;100.00
10202;BME280;5143;42.584;23.164;2022-10-16T05:57:54;93299.31;;;4.27;100.00
10202;BME280;5143;42.584;23.164;2022-10-16T06:00:20;93313.94;;;5.15;100.00
10202;BME280;5143;42.584;23.164;2022-10-16T06:02:47;93310.88;;;6.05;100.00
10202;BME280;5143;42.584;23.164;2022-10-16T06:05:14;93317.47;;;6.64;100.00
10202;BME280;5143;42.584;23.164;2022-10-16T06:07:41;93318.84;;;8.16;100.00
10202;BME280;5143;42.584;23.164;2022-10-16T06:10:08;93334.69;;;9.48;100.00
10202;BME280;5143;42.584;23.164;2022-10-16T06:12:35;93338.09;;;10.93;100.00
10202;BME280;5143;42.584;23.164;2022-10-16T06:15:04;93344.69;;;11.77;100.00
10202;BME280;5143;42.584;23.164;2022-10-16T06:17:31;93359.47;;;12.29;100.00
10202;BME280;5143;42.584;23.164;2022-10-16T06:19:57;93360.03;;;13.03;100.00
10202;BME280;5143;42.584;23.164;2022-10-16T06:22:24;93369.16;;;13.55;100.00
10202;BME280;5143;42.584;23.164;2022-10-16T06:24:51;93373.09;;;14.26;100.00
10202;BME280;5143;42.584;23.164;2022-10-16T06:27:17;93376.97;;;14.70;89.19
10202;BME280;5143;42.584;23.164;2022-10-16T06:29:45;93376.09;;;15.32;83.57
10202;BME280;5143;42.584;23.164;2022-10-16T06:32:13;93384.28;;;15.69;78.18
10202;BME280;5143;42.584;23.164;2022-10-16T06:34:40;93383.88;;;16.15;74.45
10202;BME280;5143;42.584;23.164;2022-10-16T06:37:06;93385.84;;;15.33;72.23
10202;BME280;5143;42.584;23.164;2022-10-16T06:39:33;93389.75;;;15.58;71.88
10202;BME280;5143;42.584;23.164;2022-10-16T06:42:00;93401.59;;;15.86;70.65
10202;BME280;5143;42.584;23.164;2022-10-16T06:44:26;93391.06;;;15.85;69.85
10202;BME280;5143;42.584;23.164;2022-10-16T06:46:53;93392.38;;;16.01;69.67
10202;BME280;5143;42.584;23.164;2022-10-16T06:49:21;93398.56;;;15.73;69.91
10202;BME280;5143;42.584;23.164;2022-10-16T06:51:48;93405.09;;;15.81;70.09
10202;BME280;5143;42.584;23.164;2022-10-16T06:54:15;93392.88;;;15.99;69.38
10202;BME280;5143;42.584;23.164;2022-10-16T06:56:43;93399.88;;;15.41;70.54
10202;BME280;5143;42.584;23.164;2022-10-16T06:59:10;93409.59;;;15.31;72.08
10202;BME280;5143;42.584;23.164;2022-10-16T07:01:36;93410.25;;;15.15;73.30
10202;BME280;5143;42.584;23.164;2022-10-16T07:04:03;93406.03;;;14.77;73.83
10202;BME280;5143;42.584;23.164;2022-10-16T07:06:33;93398.75;;;13.91;80.20
10202;BME280;5143;42.584;23.164;2022-10-16T07:09:02;93400.09;;;13.76;84.76
10202;BME280;5143;42.584;23.164;2022-10-16T07:11:30;93398.78;;;13.31;90.67
10202;BME280;5143;42.584;23.164;2022-10-16T07:13:57;93396.78;;;13.11;100.00
10202;BME280;5143;42.584;23.164;2022-10-16T07:16:26;93405.94;;;12.88;100.00
10202;BME280;5143;42.584;23.164;2022-10-16T07:18:53;93409.28;;;12.63;100.00
10202;BME280;5143;42.584;23.164;2022-10-16T07:21:23;93404.00;;;12.44;100.00
10202;BME280;5143;42.584;23.164;2022-10-16T07:23:53;93396.94;;;12.09;100.00
10202;BME280;5143;42.584;23.164;2022-10-16T07:26:20;93394.44;;;11.67;100.00
10202;BME280;5143;42.584;23.164;2022-10-16T07:28:47;93389.97;;;11.55;100.00
10202;BME280;5143;42.584;23.164;2022-10-16T07:31:15;93392.72;;;11.55;100.00
10202;BME280;5143;42.584;23.164;2022-10-16T07:33:43;93389.97;;;11.55;100.00
10202;BME280;5143;42.584;23.164;2022-10-16T07:36:11;93394.19;;;11.79;100.00
10202;BME280;5143;42.584;23.164;2022-10-16T07:38:38;93398.44;;;11.80;100.00
10202;BME280;5143;42.584;23.164;2022-10-16T07:41:07;93396.00;;;11.97;100.00
10202;BME280;5143;42.584;23.164;2022-10-16T07:43:36;93404.22;;;12.26;100.00
10202;BME280;5143;42.584;23.164;2022-10-16T07:46:02;93406.97;;;12.41;100.00
10202;BME280;5143;42.584;23.164;2022-10-16T07:48:32;93410.50;;;12.47;100.00
10202;BME280;5143;42.584;23.164;2022-10-16T07:51:00;93416.06;;;12.67;100.00
10202;BME280;5143;42.584;23.164;2022-10-16T07:53:27;93412.41;;;12.56;100.00
10202;BME280;5143;42.584;23.164;2022-10-16T07:55:57;93417.19;;;12.75;100.00
10202;BME280;5143;42.584;23.164;2022-10-16T07:58:26;93424.22;;;12.96;100.00
10202;BME280;5143;42.584;23.164;2022-10-16T08:00:53;93416.81;;;13.02;100.00
10202;BME280;5143;42.584;23.164;2022-10-16T08:03:19;93412.56;;;12.81;100.00
10202;BME280;5143;42.584;23.164;2022-10-16T08:05:47;93413.13;;;12.71;100.00
10202;BME280;5143;42.584;23.164;2022-10-16T08:08:14;93407.94;;;12.73;100.00
10202;BME280;5143;42.584;23.164;2022-10-16T08:10:41;93409.47;;;12.94;100.00
10202;BME280;5143;42.584;23.164;2022-10-16T08:13:08;93407.56;;;13.00;100.00
10202;BME280;5143;42.584;23.164;2022-10-16T08:15:36;93412.84;;;13.18;100.00
10202;BME280;5143;42.584;23.164;2022-10-16T08:18:04;93410.09;;;13.38;100.00
10202;BME280;5143;42.584;23.164;2022-10-16T08:20:32;93413.06;;;13.55;100.00
10202;BME280;5143;42.584;23.164;2022-10-16T08:23:00;93414.69;;;13.67;100.00
10202;BME280;5143;42.584;23.164;2022-10-16T08:25:27;93420.31;;;13.58;100.00
10202;BME280;5143;42.584;23.164;2022-10-16T08:27:53;93421.22;;;13.70;100.00
10202;BME280;5143;42.584;23.164;2022-10-16T08:30:23;93420.09;;;13.82;100.00
10202;BME280;5143;42.584;23.164;2022-10-16T08:32:51;93424.59;;;14.05;100.00
10202;BME280;5143;42.584;23.164;2022-10-16T08:35:18;93425.41;;;14.11;100.00
10202;BME280;5143;42.584;23.164;2022-10-16T08:37:45;93418.72;;;13.92;100.00
10202;BME280;5143;42.584;23.164;2022-10-16T08:40:17;93420.56;;;14.00;100.00
10202;BME280;5143;42.584;23.164;2022-10-16T08:43:03;93420.00;;;13.96;100.00
10202;BME280;5143;42.584;23.164;2022-10-16T08:45:38;93427.81;;;14.03;100.00
10202;BME280;5143;42.584;23.164;2022-10-16T08:48:17;93429.94;;;14.14;100.00
10202;BME280;5143;42.584;23.164;2022-10-16T08:50:48;93427.72;;;14.18;100.00
10202;BME280;5143;42.584;23.164;2022-10-16T08:53:19;93423.81;;;14.04;100.00
10202;BME280;5143;42.584;23.164;2022-10-16T08:55:50;93436.66;;;14.13;100.00
10202;BME280;5143;42.584;23.164;2022-10-16T08:58:19;93433.19;;;14.18;100.00
10202;BME280;5143;42.584;23.164;2022-10-16T09:00:49;93432.50;;;13.97;100.00
10202;BME280;5143;42.584;23.164;2022-10-16T09:03:26;93438.31;;;14.05;100.00
10202;BME280;5143;42.584;23.164;2022-10-16T09:06:15;93437.09;;;14.32;100.00
10202;BME280;5143;42.584;23.164;2022-10-16T09:08:53;93439.28;;;14.28;97.24
10202;BME280;5143;42.584;23.164;2022-10-16T09:11:33;93437.09;;;14.32;100.00
10202;BME280;5143;42.584;23.164;2022-10-16T09:14:07;93436.19;;;14.40;97.54
10202;BME280;5143;42.584;23.164;2022-10-16T09:16:44;93438.38;;;14.62;90.91
10202;BME280;5143;42.584;23.164;2022-10-16T09:19:17;93440.41;;;14.67;96.83
10202;BME280;5143;42.584;23.164;2022-10-16T09:21:48;93435.41;;;14.65;100.00
10202;BME280;5143;42.584;23.164;2022-10-16T09:24:17;93428.19;;;14.68;86.60
10202;BME280;5143;42.584;23.164;2022-10-16T09:26:45;93432.44;;;14.69;86.98
10202;BME280;5143;42.584;23.164;2022-10-16T09:29:14;93430.34;;;14.90;99.00
10202;BME280;5143;42.584;23.164;2022-10-16T09:31:41;93439.84;;;14.89;92.69
10202;BME280;5143;42.584;23.164;2022-10-16T09:34:17;93437.97;;;15.11;91.27
10202;BME280;5143;42.584;23.164;2022-10-16T09:36:47;93436.00;;;15.12;85.81
10202;BME280;5143;42.584;23.164;2022-10-16T09:39:14;93437.06;;;15.25;85.03
10202;BME280;5143;42.584;23.164;2022-10-16T09:41:43;93436.63;;;15.32;84.61
10202;BME280;5143;42.584;23.164;2022-10-16T09:44:20;93437.91;;;15.37;82.84
10202;BME280;5143;42.584;23.164;2022-10-16T09:46:47;93437.38;;;15.33;82.83
10202;BME280;5143;42.584;23.164;2022-10-16T09:49:21;93441.63;;;15.34;80.82
10202;BME280;5143;42.584;23.164;2022-10-16T09:51:50;93438.63;;;15.32;79.09
10202;BME280;5143;42.584;23.164;2022-10-16T09:54:18;93428.03;;;15.19;75.99
10202;BME280;5143;42.584;23.164;2022-10-16T09:56:45;93422.44;;;15.03;76.70
10202;BME280;5143;42.584;23.164;2022-10-16T09:59:19;93428.47;;;15.07;77.86
10202;BME280;5143;42.584;23.164;2022-10-16T10:01:47;93436.25;;;15.14;76.94
10202;BME280;5143;42.584;23.164;2022-10-16T10:04:16;93431.78;;;15.22;75.80
10202;BME280;5143;42.584;23.164;2022-10-16T10:06:46;93426.34;;;15.33;74.89
10202;BME280;5143;42.584;23.164;2022-10-16T10:09:19;93432.41;;;15.37;73.83
10202;BME280;5143;42.584;23.164;2022-10-16T10:11:49;93436.16;;;15.40;72.92
10202;BME280;5143;42.584;23.164;2022-10-16T10:14:28;93426.97;;;15.48;73.60
10202;BME280;5143;42.584;23.164;2022-10-16T10:17:10;93431.91;;;15.44;70.65
10202;BME280;5143;42.584;23.164;2022-10-16T10:19:38;93429.00;;;15.53;71.11
10202;BME280;5143;42.584;23.164;2022-10-16T10:22:17;93423.41;;;15.42;69.25
10202;BME280;5143;42.584;23.164;2022-10-16T10:24:44;93422.50;;;15.51;68.41
10202;BME280;5143;42.584;23.164;2022-10-16T10:27:15;93423.28;;;15.57;67.90
10202;BME280;5143;42.584;23.164;2022-10-16T10:29:49;93423.75;;;15.55;69.24
10202;BME280;5143;42.584;23.164;2022-10-16T10:32:27;93410.97;;;15.52;67.72
10202;BME280;5143;42.584;23.164;2022-10-16T10:35:13;93417.25;;;15.58;67.48
10202;BME280;5143;42.584;23.164;2022-10-16T10:37:51;93416.31;;;15.67;66.01
10202;BME280;5143;42.584;23.164;2022-10-16T10:40:29;93406.06;;;15.73;64.92
10202;BME280;5143;42.584;23.164;2022-10-16T10:43:03;93396.28;;;15.66;65.47
10202;BME280;5143;42.584;23.164;2022-10-16T10:45:40;93392.81;;;15.82;65.78
10202;BME280;5143;42.584;23.164;2022-10-16T10:48:38;93398.06;;;15.80;63.16
10202;BME280;5143;42.584;23.164;2022-10-16T10:51:16;93397.06;;;15.78;65.39
10202;BME280;5143;42.584;23.164;2022-10-16T10:53:52;93391.53;;;15.72;62.66
10202;BME280;5143;42.584;23.164;2022-10-16T10:56:37;93393.09;;;15.84;63.27
10202;BME280;5143;42.584;23.164;2022-10-16T11:02:12;93389.06;;;15.85;64.34
10202;BME280;5143;42.584;23.164;2022-10-16T11:05:14;93389.38;;;15.93;63.22
10202;BME280;5143;42.584;23.164;2022-10-16T11:07:49;93377.59;;;15.92;63.16
10202;BME280;5143;42.584;23.164;2022-10-16T11:10:21;93385.13;;;16.09;62.96
10202;BME280;5143;42.584;23.164;2022-10-16T11:12:52;93376.13;;;16.14;61.78
10202;BME280;5143;42.584;23.164;2022-10-16T11:15:25;93380.16;;;16.24;62.65
10202;BME280;5143;42.584;23.164;2022-10-16T11:17:57;93386.94;;;16.34;60.60
10202;BME280;5143;42.584;23.164;2022-10-16T11:20:29;93378.16;;;16.41;59.83
10202;BME280;5143;42.584;23.164;2022-10-16T11:23:01;93365.63;;;16.29;59.53
10202;BME280;5143;42.584;23.164;2022-10-16T11:25:33;93377.16;;;16.33;59.95
10202;BME280;5143;42.584;23.164;2022-10-16T11:28:03;93382.41;;;16.31;60.63
10202;BME280;5143;42.584;23.164;2022-10-16T11:30:39;93383.19;;;16.37;59.28
10202;BME280;5143;42.584;23.164;2022-10-16T11:33:22;93379.16;;;16.38;60.03
10202;BME280;5143;42.584;23.164;2022-10-16T11:35:53;93374.16;;;16.42;57.21
10202;BME280;5143;42.584;23.164;2022-10-16T11:38:27;93372.88;;;16.37;58.09
10202;BME280;5143;42.584;23.164;2022-10-16T11:41:00;93384.41;;;16.30;56.33
10202;BME280;5143;42.584;23.164;2022-10-16T11:43:33;93378.91;;;16.41;56.74
10202;BME280;5143;42.584;23.164;2022-10-16T11:46:08;93380.69;;;16.50;55.96
10202;BME280;5143;42.584;23.164;2022-10-16T11:48:41;93379.16;;;16.49;57.27
10202;BME280;5143;42.584;23.164;2022-10-16T11:51:16;93375.44;;;16.69;53.95
10202;BME280;5143;42.584;23.164;2022-10-16T11:53:51;93367.41;;;16.71;53.56
10202;BME280;5143;42.584;23.164;2022-10-16T11:56:21;93373.44;;;16.69;54.63
10202;BME280;5143;42.584;23.164;2022-10-16T11:58:54;93366.94;;;16.67;54.07
10202;BME280;5143;42.584;23.164;2022-10-16T12:01:28;93364.66;;;16.65;54.89
10202;BME280;5143;42.584;23.164;2022-10-16T12:04:18;93368.16;;;16.82;55.27
10202;BME280;5143;42.584;23.164;2022-10-16T12:06:49;93367.38;;;16.93;53.53
10202;BME280;5143;42.584;23.164;2022-10-16T12:09:22;93367.13;;;16.96;53.75
10202;BME280;5143;42.584;23.164;2022-10-16T12:11:53;93364.38;;;16.91;52.42
10202;BME280;5143;42.584;23.164;2022-10-16T12:14:38;93362.88;;;16.79;52.15
10202;BME280;5143;42.584;23.164;2022-10-16T12:17:24;93356.38;;;16.87;54.24
10202;BME280;5143;42.584;23.164;2022-10-16T12:20:12;93356.59;;;16.95;52.77
10202;BME280;5143;42.584;23.164;2022-10-16T12:22:48;93367.63;;;17.00;51.92
10202;BME280;5143;42.584;23.164;2022-10-16T12:25:21;93363.88;;;16.98;51.49
10202;BME280;5143;42.584;23.164;2022-10-16T12:27:56;93358.63;;;16.94;51.93
10202;BME280;5143;42.584;23.164;2022-10-16T12:30:25;93358.63;;;16.89;50.93
10202;BME280;5143;42.584;23.164;2022-10-16T12:32:53;93350.09;;;16.92;51.60
10202;BME280;5143;42.584;23.164;2022-10-16T12:35:22;93358.34;;;17.03;50.65
10202;BME280;5143;42.584;23.164;2022-10-16T12:37:50;93351.59;;;16.93;50.51
10202;BME280;5143;42.584;23.164;2022-10-16T12:40:26;93357.34;;;16.95;50.46
10202;BME280;5143;42.584;23.164;2022-10-16T12:42:56;93355.34;;;16.96;51.12
10202;BME280;5143;42.584;23.164;2022-10-16T12:45:28;93357.63;;;16.97;49.95
10202;BME280;5143;42.584;23.164;2022-10-16T12:47:57;93355.63;;;16.81;49.50
10202;BME280;5143;42.584;23.164;2022-10-16T12:50:27;93350.88;;;16.76;49.47
10202;BME280;5143;42.584;23.164;2022-10-16T12:52:56;93353.63;;;16.76;49.69
10202;BME280;5143;42.584;23.164;2022-10-16T12:55:24;93360.63;;;16.88;50.65
10202;BME280;5143;42.584;23.164;2022-10-16T12:58:25;93362.88;;;16.95;48.71
10202;BME280;5143;42.584;23.164;2022-10-16T13:00:57;93365.38;;;16.99;49.35
10202;BME280;5143;42.584;23.164;2022-10-16T13:06:32;93371.41;;;16.92;49.61
10202;BME280;5143;42.584;23.164;2022-10-16T13:09:17;93371.91;;;16.96;49.34
10202;BME280;5143;42.584;23.164;2022-10-16T13:11:58;93361.13;;;16.92;49.73
10202;BME280;5143;42.584;23.164;2022-10-16T13:17:37;93364.41;;;16.80;49.15
10202;BME280;5143;42.584;23.164;2022-10-16T13:20:15;93364.16;;;16.83;50.19
10202;BME280;5143;42.584;23.164;2022-10-16T13:22:53;93370.66;;;16.86;48.86